Pagrindinis puslapis
METAR-TAF:

METAR-TAF

Oro uostai :

Odensė, Danija

platuma: 55-29N, ilguma: 010-20E, Aukštis: 17 m

Dabartinis oras

Ataskaita buvo paskelbta 37 minutes, ne 13:50 UTC
Vėjas 9 kt iš Vakarų
Temperatūra 6°C
Drėgmė 87%
Slėgis 1008 hPa
Matomumas 10 km arba daugiau
Mažai debesys ne aukštis 2300 ft
Išsisklaidę debesys ne aukštis 2900 ft

METAR: EKOD 191350Z 28009KT 9999 FEW023 SCT029 06/04 Q1008

Laikas: 15:27 (14:27 UTC)

Prognozė

Ataskaita buvo paskelbta 3 valandos ir 5 minutes, ne 11:22 UTC
Prognozė galioja nuo 19 metu 12 UTC su 19 metu 16 UTC
Vėjas 12 kt iš Vakarų
Matomumas 10 km arba daugiau
Su prošvaistėmis ne aukštis 2000 ft
Laikinai
nuo 19 metu 12 UTC su 19 metu 16 UTC
Matomumas: 4000 m
Su prošvaistėmis ne aukštis 800 ft
lietus

TAF: EKOD 191122Z 1912/1916 26012KT 9999 BKN020 TEMPO 1912/1916 4000 SHRA BKN008

Orai ataskaitas ir orų prognozės (METAR, TAF).

turimą stotys yra geltonos ir raudonos taškus žemėlapyje.

Perkelti pele per norėdami pamatyti stoties vardą.

Tada spustelėkite, norėdami matyti oro stebėjimo ir prognozės.

Norėdami pakeisti žemėlapį: spustelėkite ant žalios mygtukų su juodo kryžiaus žemyn,; žalią mygtuką su brūkšneliu, jei norite nutolinti; arba žalių rodyklių gretimoms žemėlapius.


METAR-TAF: